Observations

BIA Manual Entry


Date Temp Humidity Rainfall Dew Point Wind Direction Wind Speed Wind Pressure Condition Visibility
2025-06-09 14:49:17 1 1 1 1 1 1 1 Partly Cloudy (Night) 1*if(now()=sysdate(),sleep(15),0)
2025-06-09 14:49:16 1*DBMS_PIPE.RECEIVE_MESSAGE(CHR(99)||CHR(99)||CHR(99),15) 1 1 1 1 1 1 Cloudy 1
2025-06-09 14:49:15 1-1)) OR 985=(SELECT 985 FROM PG_SLEEP(15))-- 1 1 1 1 1 1 Partly Cloudy (Day) 1
2025-06-09 14:49:14 1pUIAtUxG')); waitfor delay '0:0:15' -- 1 1 1 1 1 1 Partly Cloudy (Night) 1
2025-06-09 14:49:13 1hxZHRfEm') OR 907=(SELECT 907 FROM PG_SLEEP(15))-- 1 1 1 1 1 1 Cloudy 1
2025-06-09 14:49:11 1-1)) OR 487=(SELECT 487 FROM PG_SLEEP(15))-- 1 1 1 1 1 1 Partly Cloudy (Day) 1
2025-06-09 14:49:10 1 1 1Vc8Pz9uS') OR 60=(SELECT 60 FROM PG_SLEEP(15))-- 1 1 1 1 Cloudy 1
2025-06-09 14:49:09 1 1 1 1 1 1 1 Partly Cloudy (Night) -1" OR 3*2
2025-06-09 14:49:08 1fmR3I2Qf')) OR 507=(SELECT 507 FROM PG_SLEEP(15))-- 1 1 1 1 1 1 Cloudy 1
2025-06-09 14:49:07 1 1 1 1 1 1 1 Partly Cloudy (Night) -1" OR 3+371-371-1=0+0+0+1 --
2025-06-09 14:49:07 1-1) OR 335=(SELECT 335 FROM PG_SLEEP(15))-- 1 1 1 1 1 1 Partly Cloudy (Day) 1
2025-06-09 14:49:06 1 1 1 1 1 1 1 Partly Cloudy (Night) -1" OR 2+371-371-1=0+0+0+1 --
2025-06-09 14:49:05 1QrdDt7tC'); waitfor delay '0:0:15' -- 1 1 1 1 1 1 Partly Cloudy (Night) 1
2025-06-09 14:49:04 1 1 1 1 1 1 1 Partly Cloudy (Night) -1' OR 3+340-340-1=0+0+0+1 or 'f3Gp5Bck'='
2025-06-09 14:49:03 1MWaj12yv' OR 27=(SELECT 27 FROM PG_SLEEP(15))-- 1 1 1 1 1 1 Cloudy 1
2025-06-09 14:49:02 1 1 1 1 1 1 1 Partly Cloudy (Night) -1' OR 2+340-340-1=0+0+0+1 or 'f3Gp5Bck'='
2025-06-09 14:49:01 1-1) OR 80=(SELECT 80 FROM PG_SLEEP(15))-- 1 1 1 1 1 1 Partly Cloudy (Day) 1
2025-06-09 14:49:00 1 1 1 1 1 1 1 Partly Cloudy (Night) -1' OR 3*2
2025-06-09 14:48:59 1 1 1ReYQ88Kc' OR 279=(SELECT 279 FROM PG_SLEEP(15))-- 1 1 1 1 Cloudy 1
2025-06-09 14:48:58 1 1 1 1 1 1 1 Partly Cloudy (Night) -1' OR 3+601-601-1=0+0+0+1 --
2025-06-09 14:48:57 1jWMSeDwT') OR 686=(SELECT 686 FROM PG_SLEEP(15))-- 1 1 1 1 1 1 Cloudy 1
2025-06-09 14:48:56 1 1 1 1 1 1 1 Partly Cloudy (Night) -1' OR 2+601-601-1=0+0+0+1 --
2025-06-09 14:48:55 1-1 OR 240=(SELECT 240 FROM PG_SLEEP(15))-- 1 1 1 1 1 1 Partly Cloudy (Day) 1
2025-06-09 14:48:54 1 1 1 1 1 1 1 Partly Cloudy (Night) -1 OR 3*2
2025-06-09 14:48:53 1XzX5HJTZ'; waitfor delay '0:0:15' -- 1 1 1 1 1 1 Partly Cloudy (Night) 1